createdAt,value
2022-11-29T00:01:34.602Z,185.50
2022-11-29T00:04:02.157Z,150.38
2022-11-29T00:06:32.313Z,209.45
2022-11-29T00:09:02.201Z,180.65
2022-11-29T00:11:51.056Z,237.98
2022-11-29T00:14:19.424Z,180.97
2022-11-29T00:16:59.468Z,197.63
2022-11-29T00:19:26.635Z,175.80
2022-11-29T00:21:53.730Z,146.98
2022-11-29T00:24:20.733Z,247.30
2022-11-29T00:26:47.915Z,134.47
2022-11-29T00:29:14.831Z,101.20
2022-11-29T00:31:42.417Z,188.32
2022-11-29T00:34:11.093Z,234.63
2022-11-29T00:36:38.378Z,135.85
2022-11-29T00:39:06.114Z,109.93
2022-11-29T00:41:33.265Z,204.48
2022-11-29T00:44:00.174Z,148.93
2022-11-29T00:46:27.078Z,177.60
2022-11-29T00:48:53.894Z,167.05
2022-11-29T00:51:20.766Z,163.63
2022-11-29T00:53:47.566Z,117.40
2022-11-29T00:56:14.474Z,215.88
2022-11-29T00:58:43.647Z,197.45
2022-11-29T01:01:12.019Z,139.13
2022-11-29T01:03:38.966Z,175.17
2022-11-29T01:06:08.905Z,242.30
2022-11-29T01:08:36.270Z,185.50
2022-11-29T01:11:26.644Z,184.07
2022-11-29T01:13:56.937Z,207.60
2022-11-29T01:16:24.198Z,164.73
2022-11-29T01:18:51.362Z,167.23
2022-11-29T01:21:20.925Z,191.57
2022-11-29T01:23:49.487Z,215.18
2022-11-29T01:26:19.640Z,274.90
2022-11-29T01:28:48.354Z,162.57
2022-11-29T01:31:22.101Z,148.10
2022-11-29T01:33:49.287Z,258.88
2022-11-29T01:36:16.066Z,178.65
2022-11-29T01:38:43.237Z,202.70
2022-11-29T01:41:14.675Z,107.63
2022-11-29T01:44:02.582Z,97.95
2022-11-29T01:46:36.062Z,68.70
2022-11-29T01:49:11.642Z,64.43
2022-11-29T01:51:42.134Z,77.82
2022-11-29T01:54:11.085Z,98.17
2022-11-29T01:56:39.030Z,86.90
2022-11-29T01:59:12.762Z,87.50
2022-11-29T02:01:39.632Z,96.95
2022-11-29T02:04:07.508Z,75.78
2022-11-29T02:06:35.166Z,67.47
2022-11-29T02:09:03.226Z,52.13
2022-11-29T02:11:58.058Z,52.13
2022-11-29T02:14:59.452Z,65.07
2022-11-29T02:18:00.187Z,104.85
2022-11-29T02:21:16.771Z,90.73
2022-11-29T02:24:05.181Z,48.17
2022-11-29T02:26:48.215Z,56.83
2022-11-29T02:29:14.997Z,54.80
2022-11-29T02:32:00.354Z,53.42
2022-11-29T02:34:52.336Z,59.03
2022-11-29T02:37:19.085Z,41.35
2022-11-29T02:40:09.893Z,60.90
2022-11-29T02:42:56.063Z,67.03
2022-11-29T02:45:35.450Z,58.50
2022-11-29T02:48:40.554Z,58.50
2022-11-29T02:51:18.931Z,54.20
2022-11-29T02:53:48.675Z,47.55
2022-11-29T02:56:34.950Z,70.97
2022-11-29T02:59:13.590Z,46.10
2022-11-29T03:02:08.031Z,50.50
2022-11-29T03:04:48.485Z,52.13
2022-11-29T03:07:45.957Z,47.85
2022-11-29T03:10:39.675Z,48.55
2022-11-29T03:13:20.297Z,46.17
2022-11-29T03:16:02.532Z,53.87
2022-11-29T03:19:09.385Z,48.72
2022-11-29T03:21:39.120Z,82.70
2022-11-29T03:24:14.890Z,59.45
2022-11-29T03:26:46.616Z,62.95
2022-11-29T03:29:35.260Z,53.77
2022-11-29T03:32:14.175Z,105.85
2022-11-29T03:35:16.817Z,118.90
2022-11-29T03:38:15.368Z,82.28
2022-11-29T03:41:10.093Z,109.53
2022-11-29T03:43:47.576Z,56.73
2022-11-29T03:46:27.997Z,104.25
2022-11-29T03:49:02.774Z,100.38
2022-11-29T03:51:35.579Z,111.28
2022-11-29T03:54:09.582Z,112.25
2022-11-29T03:56:39.670Z,44.20
2022-11-29T03:59:09.498Z,80.88
2022-11-29T04:02:18.887Z,85.20
2022-11-29T04:05:10.598Z,88.22
2022-11-29T04:08:02.233Z,143.52
2022-11-29T04:11:11.781Z,70.40
2022-11-29T04:13:59.634Z,105.35
2022-11-29T04:16:35.296Z,77.95
2022-11-29T04:19:21.475Z,98.00
2022-11-29T04:22:12.836Z,61.25
2022-11-29T04:25:04.324Z,151.00
2022-11-29T04:27:53.779Z,94.43
2022-11-29T04:30:21.794Z,96.63
2022-11-29T04:33:16.546Z,104.80
2022-11-29T04:35:43.339Z,102.90
2022-11-29T04:38:42.563Z,82.20
2022-11-29T04:41:32.633Z,131.55
2022-11-29T04:44:05.274Z,183.02
2022-11-29T04:47:09.283Z,62.85
2022-11-29T04:49:44.810Z,112.40
2022-11-29T04:52:30.317Z,87.33
2022-11-29T04:55:16.882Z,76.22
2022-11-29T04:57:55.941Z,60.22
2022-11-29T05:00:24.561Z,94.82
2022-11-29T05:03:11.621Z,171.35
2022-11-29T05:05:57.611Z,124.37
2022-11-29T05:08:59.650Z,60.67
2022-11-29T05:11:45.395Z,64.07
2022-11-29T05:14:39.630Z,94.07
2022-11-29T05:17:31.354Z,80.70
2022-11-29T05:20:18.420Z,76.50
2022-11-29T05:23:29.622Z,48.35
2022-11-29T05:26:26.129Z,38.63
2022-11-29T05:28:55.774Z,55.72
2022-11-29T05:31:40.695Z,71.53
2022-11-29T05:34:35.566Z,65.80
2022-11-29T05:37:39.946Z,46.22
2022-11-29T05:40:39.202Z,63.47
2022-11-29T05:43:48.545Z,83.55
2022-11-29T05:46:24.189Z,74.95
2022-11-29T05:49:16.219Z,66.90
2022-11-29T05:52:07.233Z,70.82
2022-11-29T05:55:06.021Z,45.72
2022-11-29T05:58:30.132Z,26.63
2022-11-29T06:01:05.453Z,25.45
2022-11-29T06:04:02.146Z,28.97
2022-11-29T06:06:28.981Z,28.52
2022-11-29T06:09:07.727Z,39.70
2022-11-29T06:12:06.928Z,34.67
2022-11-29T06:14:46.144Z,57.83
2022-11-29T06:17:41.045Z,37.60
2022-11-29T06:20:38.158Z,23.08
2022-11-29T06:23:28.678Z,61.33
2022-11-29T06:26:07.711Z,38.63
2022-11-29T06:29:20.661Z,48.72
2022-11-29T06:31:54.840Z,47.70
2022-11-29T06:34:49.168Z,39.45
2022-11-29T06:37:50.666Z,80.78
2022-11-29T06:40:17.887Z,50.10
2022-11-29T06:42:44.976Z,70.07
2022-11-29T06:45:14.754Z,69.27
2022-11-29T06:47:47.355Z,70.75
2022-11-29T06:50:32.483Z,73.43
2022-11-29T06:53:26.077Z,82.03
2022-11-29T06:56:04.466Z,78.93
2022-11-29T06:59:08.854Z,79.10
2022-11-29T07:01:51.555Z,76.00
2022-11-29T07:04:46.255Z,106.82
2022-11-29T07:07:20.500Z,64.47
2022-11-29T07:09:49.791Z,87.35
2022-11-29T07:12:18.907Z,69.07
2022-11-29T07:14:46.368Z,86.35
2022-11-29T07:17:22.416Z,67.72
2022-11-29T07:19:57.977Z,71.85
2022-11-29T07:22:36.056Z,51.58
2022-11-29T07:25:25.659Z,75.83
2022-11-29T07:28:18.561Z,67.57
2022-11-29T07:30:56.585Z,69.20
2022-11-29T07:33:26.260Z,38.25
2022-11-29T07:35:59.060Z,61.30
2022-11-29T07:38:48.437Z,39.33
2022-11-29T07:41:43.866Z,23.73
2022-11-29T07:44:28.058Z,51.63
2022-11-29T07:46:54.956Z,44.05
2022-11-29T07:49:21.768Z,31.60
2022-11-29T07:51:48.791Z,53.03
2022-11-29T07:54:18.874Z,52.13
2022-11-29T07:56:45.823Z,42.95
2022-11-29T07:59:13.158Z,34.05
2022-11-29T08:01:40.631Z,34.05
2022-11-29T08:04:08.727Z,49.50
2022-11-29T08:06:36.463Z,36.35
2022-11-29T08:09:04.973Z,42.53
2022-11-29T08:11:31.831Z,44.67
2022-11-29T08:14:00.329Z,56.42
2022-11-29T08:16:27.268Z,44.80
2022-11-29T08:18:54.053Z,27.98
2022-11-29T08:21:21.302Z,58.67
2022-11-29T08:23:49.573Z,35.13
2022-11-29T08:26:18.862Z,32.45
2022-11-29T08:28:45.816Z,43.17
2022-11-29T08:31:14.218Z,22.27
2022-11-29T08:33:43.735Z,24.10
2022-11-29T08:36:20.774Z,41.45
2022-11-29T08:38:48.503Z,41.40
2022-11-29T08:41:17.561Z,59.33
2022-11-29T08:43:44.797Z,46.05
2022-11-29T08:46:16.915Z,42.65
2022-11-29T08:48:45.790Z,28.80
2022-11-29T08:51:13.172Z,39.97
2022-11-29T08:53:43.359Z,24.63
2022-11-29T08:56:53.398Z,27.30
2022-11-29T08:58:59.693Z,17.08
2022-11-29T09:01:26.732Z,22.98
2022-11-29T09:04:07.347Z,30.98
2022-11-29T09:06:40.650Z,29.57
2022-11-29T09:09:07.761Z,30.45
2022-11-29T09:11:36.295Z,30.75
2022-11-29T09:14:06.524Z,34.72
2022-11-29T09:16:35.684Z,42.30
2022-11-29T09:19:03.684Z,28.67
2022-11-29T09:21:32.636Z,40.92
2022-11-29T09:24:01.651Z,26.67
2022-11-29T09:26:31.693Z,35.25
2022-11-29T09:29:01.453Z,32.63
2022-11-29T09:31:29.820Z,24.27
2022-11-29T09:33:57.031Z,25.92
2022-11-29T09:36:28.583Z,45.38
2022-11-29T09:38:57.401Z,33.40
2022-11-29T09:41:36.328Z,43.97
2022-11-29T09:44:35.552Z,36.40
2022-11-29T09:47:33.239Z,45.13
2022-11-29T09:50:18.226Z,33.60
2022-11-29T09:52:52.694Z,22.63
2022-11-29T09:55:34.500Z,23.35
2022-11-29T09:58:04.025Z,26.10
2022-11-29T10:00:35.838Z,19.30
2022-11-29T10:03:14.182Z,20.80
2022-11-29T10:05:50.019Z,20.05
2022-11-29T10:08:27.450Z,24.98
2022-11-29T10:11:00.592Z,22.63
2022-11-29T10:13:30.114Z,19.75
2022-11-29T10:16:04.236Z,20.52
2022-11-29T10:18:40.466Z,25.25
2022-11-29T10:21:17.891Z,29.75
2022-11-29T10:23:50.805Z,20.23
2022-11-29T10:26:18.350Z,26.08
2022-11-29T10:28:47.879Z,22.98
2022-11-29T10:31:22.755Z,23.90
2022-11-29T10:33:50.421Z,18.05
2022-11-29T10:36:34.378Z,19.23
2022-11-29T10:39:14.378Z,16.25
2022-11-29T10:41:41.848Z,19.30
2022-11-29T10:44:14.018Z,14.77
2022-11-29T10:46:41.394Z,18.08
2022-11-29T10:49:14.624Z,19.37
2022-11-29T10:51:41.530Z,17.58
2022-11-29T10:54:30.081Z,19.73
2022-11-29T10:57:00.109Z,17.83
2022-11-29T10:59:29.778Z,14.38
2022-11-29T11:01:57.693Z,17.60
2022-11-29T11:04:36.857Z,17.38
2022-11-29T11:07:06.368Z,14.68
2022-11-29T11:09:42.531Z,16.92
2022-11-29T11:12:15.387Z,23.80
2022-11-29T11:14:44.119Z,20.97
2022-11-29T11:17:33.180Z,17.13
2022-11-29T11:20:04.762Z,16.67
2022-11-29T11:22:33.558Z,17.88
2022-11-29T11:25:25.214Z,21.52
2022-11-29T11:27:52.397Z,21.63
2022-11-29T11:30:24.921Z,16.95
2022-11-29T11:33:16.218Z,21.58
2022-11-29T11:35:43.031Z,17.35
2022-11-29T11:38:17.776Z,17.15
2022-11-29T11:40:45.467Z,19.07
2022-11-29T11:43:21.038Z,20.13
2022-11-29T11:45:54.713Z,14.98
2022-11-29T11:48:22.370Z,18.45
2022-11-29T11:50:56.427Z,18.98
2022-11-29T11:53:30.692Z,18.97
2022-11-29T11:56:04.342Z,18.88
2022-11-29T11:58:45.659Z,19.30
2022-11-29T12:01:12.412Z,20.52
2022-11-29T12:03:48.291Z,19.67
2022-11-29T12:06:25.106Z,17.63
2022-11-29T12:08:56.261Z,16.70
2022-11-29T12:11:25.690Z,19.95
2022-11-29T12:13:57.767Z,16.52
2022-11-29T12:16:35.256Z,17.85
2022-11-29T12:19:30.927Z,13.90
2022-11-29T12:22:03.413Z,14.70
2022-11-29T12:24:38.793Z,19.88
2022-11-29T12:27:09.614Z,17.15
2022-11-29T12:29:36.500Z,19.77
2022-11-29T12:32:37.210Z,19.70
2022-11-29T12:35:22.918Z,18.17
2022-11-29T12:38:38.764Z,20.38
2022-11-29T12:41:18.040Z,15.75
2022-11-29T12:43:54.002Z,22.80
2022-11-29T12:46:20.818Z,27.10
2022-11-29T12:49:03.039Z,17.88
2022-11-29T12:51:35.779Z,18.63
2022-11-29T12:54:20.826Z,17.92
2022-11-29T12:57:02.742Z,18.77
2022-11-29T12:59:51.285Z,21.57
2022-11-29T13:02:49.624Z,18.55
2022-11-29T13:05:24.789Z,15.77
2022-11-29T13:08:29.026Z,16.95
2022-11-29T13:11:17.554Z,16.50
2022-11-29T13:13:50.210Z,13.20
2022-11-29T13:17:00.247Z,16.70
2022-11-29T13:19:39.609Z,20.42
2022-11-29T13:22:18.888Z,17.00
2022-11-29T13:24:48.998Z,16.73
2022-11-29T13:27:22.543Z,22.10
2022-11-29T13:29:49.794Z,18.55
2022-11-29T13:32:37.098Z,21.42
2022-11-29T13:35:12.933Z,16.17
2022-11-29T13:37:54.797Z,19.00
2022-11-29T13:40:32.275Z,17.73
2022-11-29T13:43:10.331Z,15.27
2022-11-29T13:46:07.655Z,18.08
2022-11-29T13:48:52.725Z,15.88
2022-11-29T13:51:33.086Z,22.13
2022-11-29T13:54:03.641Z,15.17
2022-11-29T13:56:47.993Z,15.88
2022-11-29T13:59:22.794Z,15.77
2022-11-29T14:01:54.069Z,16.30
2022-11-29T14:04:28.836Z,18.10
2022-11-29T14:07:04.943Z,17.77
2022-11-29T14:10:09.722Z,16.40
2022-11-29T14:12:51.029Z,12.43
2022-11-29T14:15:21.181Z,14.70
2022-11-29T14:17:56.997Z,15.25
2022-11-29T14:20:23.731Z,19.03
2022-11-29T14:23:05.753Z,14.90
2022-11-29T14:28:23.483Z,13.43
2022-11-29T14:30:58.705Z,15.55
2022-11-29T14:34:04.893Z,10.07
2022-11-29T14:36:53.747Z,15.90
2022-11-29T14:39:52.113Z,14.27
2022-11-29T14:42:22.243Z,12.95
2022-11-29T14:45:00.055Z,11.18
2022-11-29T14:47:33.055Z,13.17
2022-11-29T14:50:04.311Z,14.25
2022-11-29T14:52:36.067Z,14.18
2022-11-29T14:55:17.471Z,14.25
2022-11-29T14:57:47.390Z,13.00
2022-11-29T15:00:24.343Z,13.10
2022-11-29T15:03:14.050Z,12.15
2022-11-29T15:05:47.595Z,19.23
2022-11-29T15:08:26.501Z,12.80
2022-11-29T15:11:02.098Z,13.02
2022-11-29T15:13:32.364Z,15.63
2022-11-29T15:16:14.408Z,17.92
2022-11-29T15:19:13.421Z,14.88
2022-11-29T15:22:04.163Z,17.02
2022-11-29T15:24:30.977Z,13.23
2022-11-29T15:27:02.664Z,17.33
2022-11-29T15:29:31.978Z,20.13
2022-11-29T15:32:05.937Z,16.55
2022-11-29T15:34:39.470Z,12.55
2022-11-29T15:37:06.969Z,12.52
2022-11-29T15:39:36.660Z,13.63
2022-11-29T15:42:16.130Z,11.75
2022-11-29T15:44:47.985Z,15.40
2022-11-29T15:47:24.198Z,15.80
2022-11-29T15:49:52.135Z,24.35
2022-11-29T15:52:29.046Z,19.80
2022-11-29T15:55:07.642Z,20.50
2022-11-29T15:57:39.628Z,20.98
2022-11-29T16:00:09.268Z,19.80
2022-11-29T16:02:41.524Z,18.88
2022-11-29T16:05:22.653Z,22.90
2022-11-29T16:08:00.936Z,20.48
2022-11-29T16:10:39.730Z,19.98
2022-11-29T16:13:28.449Z,22.45
2022-11-29T16:16:19.704Z,14.02
2022-11-29T16:18:48.136Z,17.77
2022-11-29T16:21:43.545Z,21.73
2022-11-29T16:24:21.991Z,22.42
2022-11-29T16:26:50.182Z,20.98
2022-11-29T16:29:21.747Z,20.73
2022-11-29T16:31:48.689Z,24.27
2022-11-29T16:34:36.052Z,21.35
2022-11-29T16:37:02.794Z,22.33
2022-11-29T16:39:30.853Z,24.15
2022-11-29T16:42:07.498Z,16.90
2022-11-29T16:44:40.162Z,27.77
2022-11-29T16:47:19.108Z,16.70
2022-11-29T16:49:46.401Z,19.55
2022-11-29T16:52:31.173Z,23.52
2022-11-29T16:54:58.418Z,27.15
2022-11-29T16:57:26.799Z,20.17
2022-11-29T16:59:53.659Z,22.25
2022-11-29T17:02:20.608Z,28.10
2022-11-29T17:04:47.952Z,19.73
2022-11-29T17:07:26.708Z,18.70
2022-11-29T17:09:53.798Z,22.63
2022-11-29T17:12:20.818Z,20.92
2022-11-29T17:14:47.884Z,22.20
2022-11-29T17:17:17.472Z,24.08
2022-11-29T17:19:45.065Z,21.95
2022-11-29T17:22:12.794Z,22.77
2022-11-29T17:24:46.202Z,21.15
2022-11-29T17:27:14.921Z,24.65
2022-11-29T17:29:41.705Z,25.65
2022-11-29T17:32:08.733Z,31.92
2022-11-29T17:34:35.787Z,23.60
2022-11-29T17:37:02.791Z,18.08
2022-11-29T17:39:29.814Z,21.90
2022-11-29T17:41:56.611Z,19.55
2022-11-29T17:44:23.413Z,22.55
2022-11-29T17:46:50.350Z,20.57
2022-11-29T17:49:18.867Z,21.42
2022-11-29T17:51:53.937Z,18.88
2022-11-29T17:54:22.619Z,25.17
2022-11-29T17:56:49.719Z,19.10
2022-11-29T17:59:16.710Z,23.97
2022-11-29T18:01:43.568Z,23.73
2022-11-29T18:04:10.527Z,21.58
2022-11-29T18:06:39.875Z,18.80
2022-11-29T18:09:09.613Z,17.73
2022-11-29T18:11:47.403Z,20.87
2022-11-29T18:14:18.929Z,15.95
2022-11-29T18:16:46.022Z,20.13
2022-11-29T18:19:15.758Z,17.50
2022-11-29T18:21:42.964Z,20.65
2022-11-29T18:24:10.343Z,16.40
2022-11-29T18:26:38.228Z,18.75
2022-11-29T18:29:06.096Z,19.20
2022-11-29T18:31:35.795Z,17.38
2022-11-29T18:34:09.903Z,15.15
2022-11-29T18:36:46.334Z,18.47
2022-11-29T18:39:19.197Z,13.68
2022-11-29T18:41:48.314Z,15.90
2022-11-29T18:44:17.586Z,13.88
2022-11-29T18:46:45.979Z,14.60
2022-11-29T18:49:15.830Z,16.00
2022-11-29T18:51:45.274Z,15.05
2022-11-29T18:54:13.313Z,15.63
2022-11-29T18:56:40.165Z,16.60
2022-11-29T18:59:10.533Z,15.25
2022-11-29T19:01:43.042Z,18.00
2022-11-29T19:04:12.870Z,21.20
2022-11-29T19:06:40.411Z,18.50
2022-11-29T19:09:11.629Z,18.35
2022-11-29T19:11:39.111Z,16.33
2022-11-29T19:14:11.571Z,15.80
2022-11-29T19:16:41.074Z,19.20
2022-11-29T19:19:08.009Z,13.80
2022-11-29T19:21:35.129Z,14.60
2022-11-29T19:24:04.851Z,15.88
2022-11-29T19:26:33.037Z,13.90
2022-11-29T19:29:00.817Z,15.18
2022-11-29T19:31:28.027Z,13.48
2022-11-29T19:33:55.779Z,15.32
2022-11-29T19:36:30.783Z,11.93
2022-11-29T19:39:02.255Z,9.97
2022-11-29T19:41:32.656Z,11.45
2022-11-29T19:44:02.341Z,13.93
2022-11-29T19:46:32.314Z,12.20
2022-11-29T19:49:00.824Z,16.48
2022-11-29T19:51:29.401Z,14.73
2022-11-29T19:54:01.899Z,14.30
2022-11-29T19:56:30.362Z,14.82
2022-11-29T19:58:57.395Z,13.82
2022-11-29T20:01:36.099Z,11.98
2022-11-29T20:04:06.818Z,14.17
2022-11-29T20:06:33.662Z,9.82
2022-11-29T20:09:00.682Z,10.13
2022-11-29T20:11:27.702Z,11.48
2022-11-29T20:14:00.233Z,10.00
2022-11-29T20:16:28.852Z,12.83
2022-11-29T20:18:56.953Z,12.32
2022-11-29T20:21:27.272Z,13.38
2022-11-29T20:23:59.235Z,13.55
2022-11-29T20:26:27.482Z,12.23
2022-11-29T20:28:55.211Z,13.93
2022-11-29T20:31:23.368Z,14.98
2022-11-29T20:33:52.966Z,10.32
2022-11-29T20:36:42.505Z,9.90
2022-11-29T20:39:29.852Z,11.75
2022-11-29T20:42:23.991Z,9.80
2022-11-29T20:44:56.417Z,12.50
2022-11-29T20:47:47.248Z,11.43
2022-11-29T20:50:21.784Z,15.07
2022-11-29T20:52:53.209Z,16.70
2022-11-29T20:55:20.887Z,9.53
2022-11-29T20:57:47.878Z,9.25
2022-11-29T21:00:16.107Z,13.52
2022-11-29T21:02:42.959Z,13.13
2022-11-29T21:05:10.445Z,9.15
2022-11-29T21:07:37.413Z,13.53
2022-11-29T21:10:05.467Z,13.20
2022-11-29T21:12:32.843Z,12.63
2022-11-29T21:15:00.069Z,10.18
2022-11-29T21:17:33.186Z,10.30
2022-11-29T21:20:01.207Z,11.80
2022-11-29T21:22:38.097Z,9.07
2022-11-29T21:25:52.215Z,9.35
2022-11-29T21:28:19.296Z,11.48
2022-11-29T21:30:46.510Z,12.57
2022-11-29T21:33:13.681Z,10.80
2022-11-29T21:35:40.881Z,11.10
2022-11-29T21:38:14.934Z,11.50
2022-11-29T21:40:41.742Z,12.35
2022-11-29T21:43:08.595Z,10.63
2022-11-29T21:45:35.604Z,11.83
2022-11-29T21:48:02.370Z,12.00
2022-11-29T21:50:29.331Z,13.13
2022-11-29T21:52:56.273Z,8.65
2022-11-29T21:55:23.098Z,9.20
2022-11-29T21:57:49.880Z,13.03
2022-11-29T22:00:17.345Z,14.32
2022-11-29T22:02:44.220Z,10.45
2022-11-29T22:05:11.107Z,11.35
2022-11-29T22:07:38.039Z,12.68
2022-11-29T22:10:11.596Z,12.73
2022-11-29T22:12:38.617Z,16.45
2022-11-29T22:15:05.986Z,13.88
2022-11-29T22:17:32.927Z,14.27
2022-11-29T22:19:59.890Z,14.20
2022-11-29T22:22:28.300Z,12.37
2022-11-29T22:24:55.265Z,11.90
2022-11-29T22:27:22.111Z,14.25
2022-11-29T22:29:49.150Z,15.60
2022-11-29T22:32:16.069Z,13.82
2022-11-29T22:34:42.847Z,15.60
2022-11-29T22:37:09.614Z,12.63
2022-11-29T22:39:36.418Z,14.50
2022-11-29T22:42:03.362Z,13.32
2022-11-29T22:44:31.387Z,12.27
2022-11-29T22:46:58.260Z,14.93
2022-11-29T22:49:25.131Z,12.32
2022-11-29T22:51:52.547Z,16.08
2022-11-29T22:54:20.400Z,17.92
2022-11-29T22:56:47.321Z,17.30
2022-11-29T22:59:14.653Z,14.47
2022-11-29T23:01:42.538Z,14.10
2022-11-29T23:04:11.176Z,16.05
2022-11-29T23:06:43.678Z,14.23
2022-11-29T23:09:16.707Z,15.23
2022-11-29T23:11:45.684Z,19.23
2022-11-29T23:14:13.096Z,17.65
2022-11-29T23:16:40.230Z,18.83
2022-11-29T23:19:07.115Z,17.77
2022-11-29T23:21:37.517Z,15.70
2022-11-29T23:24:05.053Z,15.20
2022-11-29T23:26:40.567Z,16.20
2022-11-29T23:29:10.634Z,16.23
2022-11-29T23:31:37.666Z,17.33
2022-11-29T23:34:04.900Z,19.10
2022-11-29T23:36:32.427Z,17.43
2022-11-29T23:38:59.359Z,16.30
2022-11-29T23:41:26.205Z,21.73
2022-11-29T23:43:53.001Z,18.02
2022-11-29T23:46:22.675Z,18.70
2022-11-29T23:48:50.279Z,17.37
2022-11-29T23:51:18.081Z,16.85
2022-11-29T23:53:46.834Z,16.02
2022-11-29T23:56:16.334Z,16.02
2022-11-29T23:58:44.341Z,17.10
